createdAt,value
2018-02-06T00:00:06.627Z,1016.60
2018-02-06T00:01:06.612Z,1016.60
2018-02-06T00:02:06.597Z,1016.60
2018-02-06T00:03:06.584Z,1016.52
2018-02-06T00:04:06.570Z,1016.48
2018-02-06T00:05:06.557Z,1016.47
2018-02-06T00:06:06.542Z,1016.52
2018-02-06T00:07:06.531Z,1016.49
2018-02-06T00:08:06.520Z,1016.54
2018-02-06T00:09:06.506Z,1016.52
2018-02-06T00:10:06.492Z,1016.48
2018-02-06T00:11:06.478Z,1016.46
2018-02-06T00:12:06.464Z,1016.47
2018-02-06T00:13:06.452Z,1016.42
2018-02-06T00:14:06.435Z,1016.37
2018-02-06T00:15:06.422Z,1016.40
2018-02-06T00:16:06.405Z,1016.35
2018-02-06T00:17:06.391Z,1016.36
2018-02-06T00:18:06.376Z,1016.29
2018-02-06T00:19:06.362Z,1016.29
2018-02-06T00:20:06.349Z,1016.27
2018-02-06T00:21:06.335Z,1016.21
2018-02-06T00:22:06.321Z,1016.21
2018-02-06T00:23:06.307Z,1016.24
2018-02-06T00:24:06.296Z,1016.19
2018-02-06T00:25:06.284Z,1016.13
2018-02-06T00:26:06.269Z,1016.13
2018-02-06T00:27:06.255Z,1016.10
2018-02-06T00:28:06.241Z,1016.11
2018-02-06T00:29:06.228Z,1016.07
2018-02-06T00:30:06.213Z,1016.08
2018-02-06T00:31:06.199Z,1016.06
2018-02-06T00:32:06.181Z,1016.05
2018-02-06T00:33:06.168Z,1016.08
2018-02-06T00:34:06.199Z,1016.00
2018-02-06T00:35:06.141Z,1015.97
2018-02-06T00:36:06.125Z,1015.97
2018-02-06T00:37:06.111Z,1015.95
2018-02-06T00:38:06.096Z,1015.89
2018-02-06T00:39:06.083Z,1015.90
2018-02-06T00:40:06.073Z,1015.89
2018-02-06T00:41:06.066Z,1015.90
2018-02-06T00:42:06.045Z,1015.79
2018-02-06T00:43:06.030Z,1015.83
2018-02-06T00:44:06.022Z,1015.84
2018-02-06T00:45:06.003Z,1015.83
2018-02-06T00:46:06.015Z,1015.81
2018-02-06T00:47:05.974Z,1015.82
2018-02-06T00:48:05.957Z,1015.76
2018-02-06T00:49:05.944Z,1015.76
2018-02-06T00:50:05.928Z,1015.72
2018-02-06T00:51:05.917Z,1015.71
2018-02-06T00:52:05.905Z,1015.68
2018-02-06T00:53:05.891Z,1015.64
2018-02-06T00:54:05.876Z,1015.59
2018-02-06T00:55:05.863Z,1015.63
2018-02-06T00:56:05.845Z,1015.65
2018-02-06T00:57:05.831Z,1015.58
2018-02-06T00:58:05.816Z,1015.53
2018-02-06T00:59:05.808Z,1015.51
2018-02-06T01:00:05.789Z,1015.45
2018-02-06T01:01:05.774Z,1015.42
2018-02-06T01:02:05.760Z,1015.39
2018-02-06T01:03:05.746Z,1015.39
2018-02-06T01:04:05.737Z,1015.36
2018-02-06T01:05:05.723Z,1015.35
2018-02-06T01:06:05.708Z,1015.31
2018-02-06T01:07:05.694Z,1015.33
2018-02-06T01:08:05.680Z,1015.38
2018-02-06T01:09:05.666Z,1015.30
2018-02-06T01:10:05.651Z,1015.32
2018-02-06T01:11:05.637Z,1015.32
2018-02-06T01:12:05.620Z,1015.28
2018-02-06T01:13:05.605Z,1015.24
2018-02-06T01:14:05.591Z,1015.25
2018-02-06T01:15:05.577Z,1015.23
2018-02-06T01:16:05.605Z,1015.23
2018-02-06T01:17:05.550Z,1015.17
2018-02-06T01:18:05.534Z,1015.21
2018-02-06T01:19:05.521Z,1015.16
2018-02-06T01:20:05.510Z,1015.18
2018-02-06T01:21:05.500Z,1015.12
2018-02-06T01:22:05.485Z,1015.15
2018-02-06T01:23:05.469Z,1015.11
2018-02-06T01:24:05.454Z,1015.13
2018-02-06T01:25:05.441Z,1015.14
2018-02-06T01:26:05.428Z,1015.15
2018-02-06T01:27:05.412Z,1015.22
2018-02-06T01:28:05.393Z,1015.13
2018-02-06T01:29:05.380Z,1015.09
2018-02-06T01:30:05.365Z,1015.09
2018-02-06T01:31:05.352Z,1015.09
2018-02-06T01:32:05.337Z,1015.11
2018-02-06T01:33:05.324Z,1015.10
2018-02-06T01:34:05.308Z,1015.09
2018-02-06T01:35:05.295Z,1015.06
2018-02-06T01:36:05.288Z,1015.04
2018-02-06T01:37:05.271Z,1015.01
2018-02-06T01:38:05.256Z,1015.05
2018-02-06T01:39:05.243Z,1015.08
2018-02-06T01:40:05.227Z,1015.01
2018-02-06T01:41:05.215Z,1015.05
2018-02-06T01:42:05.199Z,1014.98
2018-02-06T01:43:05.185Z,1014.95
2018-02-06T01:44:05.168Z,1014.93
2018-02-06T01:45:05.160Z,1014.87
2018-02-06T01:46:05.142Z,1014.91
2018-02-06T01:47:05.125Z,1014.90
2018-02-06T01:48:05.113Z,1014.85
2018-02-06T01:49:05.097Z,1014.84
2018-02-06T01:50:05.083Z,1014.83
2018-02-06T01:51:05.068Z,1014.82
2018-02-06T01:52:05.059Z,1014.78
2018-02-06T01:53:05.044Z,1014.69
2018-02-06T01:54:05.030Z,1014.73
2018-02-06T01:55:05.016Z,1014.65
2018-02-06T01:56:04.998Z,1014.71
2018-02-06T01:57:04.985Z,1014.68
2018-02-06T01:58:04.969Z,1014.66
2018-02-06T01:59:04.954Z,1014.62
2018-02-06T02:00:04.944Z,1014.63
2018-02-06T02:01:04.931Z,1014.58
2018-02-06T02:02:04.917Z,1014.59
2018-02-06T02:03:04.902Z,1014.54
2018-02-06T02:04:04.888Z,1014.52
2018-02-06T02:05:04.874Z,1014.52
2018-02-06T02:06:04.859Z,1014.44
2018-02-06T02:07:04.845Z,1014.47
2018-02-06T02:08:04.828Z,1014.39
2018-02-06T02:09:04.872Z,1014.42
2018-02-06T02:10:04.798Z,1014.42
2018-02-06T02:11:04.791Z,1014.45
2018-02-06T02:12:04.770Z,1014.43
2018-02-06T02:13:04.756Z,1014.44
2018-02-06T02:14:04.741Z,1014.39
2018-02-06T02:15:04.727Z,1014.39
2018-02-06T02:16:04.719Z,1014.37
2018-02-06T02:17:04.703Z,1014.34
2018-02-06T02:18:04.688Z,1014.37
2018-02-06T02:19:04.674Z,1014.29
2018-02-06T02:20:04.660Z,1014.28
2018-02-06T02:21:04.648Z,1014.20
2018-02-06T02:22:04.631Z,1014.24
2018-02-06T02:23:04.616Z,1014.14
2018-02-06T02:24:04.598Z,1014.18
2018-02-06T02:25:04.584Z,1014.16
2018-02-06T02:26:04.571Z,1014.19
2018-02-06T02:27:04.554Z,1014.16
2018-02-06T02:28:04.541Z,1014.12
2018-02-06T02:29:04.528Z,1014.05
2018-02-06T02:30:04.512Z,1014.08
2018-02-06T02:31:04.498Z,1014.02
2018-02-06T02:32:04.489Z,1014.01
2018-02-06T02:33:04.475Z,1014.01
2018-02-06T02:34:04.459Z,1014.04
2018-02-06T02:35:04.445Z,1013.99
2018-02-06T02:36:04.433Z,1013.99
2018-02-06T02:37:04.417Z,1013.87
2018-02-06T02:38:04.402Z,1013.88
2018-02-06T02:39:04.388Z,1013.91
2018-02-06T02:40:04.370Z,1013.85
2018-02-06T02:41:04.355Z,1013.81
2018-02-06T04:39:02.662Z,1012.77
2018-02-06T04:40:02.651Z,1012.75
2018-02-06T04:41:02.637Z,1012.72
2018-02-06T04:42:02.623Z,1012.78
2018-02-06T04:43:02.607Z,1012.80
2018-02-06T04:44:02.594Z,1012.79
2018-02-06T04:45:02.579Z,1012.75
2018-02-06T04:46:02.564Z,1012.79
2018-02-06T04:47:02.550Z,1012.79
2018-02-06T04:48:02.531Z,1012.76
2018-02-06T04:49:02.517Z,1012.86
2018-02-06T04:50:02.502Z,1012.79
2018-02-06T04:51:02.487Z,1012.73
2018-02-06T04:52:02.474Z,1012.77
2018-02-06T04:53:02.459Z,1012.78
2018-02-06T04:54:02.444Z,1012.80
2018-02-06T04:55:02.430Z,1012.81
2018-02-06T04:56:02.419Z,1012.74
2018-02-06T04:57:02.406Z,1012.76
2018-02-06T04:58:02.391Z,1012.76
2018-02-06T04:59:02.376Z,1012.79
2018-02-06T05:00:02.363Z,1012.78
2018-02-06T05:01:02.347Z,1012.75
2018-02-06T05:02:02.336Z,1012.74
2018-02-06T05:03:02.321Z,1012.65
2018-02-06T05:04:02.300Z,1012.70
2018-02-06T05:05:02.286Z,1012.72
2018-02-06T05:06:02.270Z,1012.68
2018-02-06T05:07:02.256Z,1012.60
2018-02-06T05:08:02.246Z,1012.69
2018-02-06T05:09:02.232Z,1012.71
2018-02-06T05:10:02.216Z,1012.62
2018-02-06T05:11:02.207Z,1012.65
2018-02-06T05:12:02.184Z,1012.60
2018-02-06T05:13:02.172Z,1012.56
2018-02-06T05:14:02.154Z,1012.58
2018-02-06T05:15:02.140Z,1012.58
2018-02-06T05:16:02.126Z,1012.56
2018-02-06T05:17:02.113Z,1012.52
2018-02-06T05:18:02.096Z,1012.50
2018-02-06T05:19:02.082Z,1012.52
2018-02-06T05:20:02.073Z,1012.49
2018-02-06T05:21:02.057Z,1012.48
2018-02-06T05:22:02.043Z,1012.50
2018-02-06T05:23:02.028Z,1012.45
2018-02-06T05:24:02.015Z,1012.48
2018-02-06T05:25:02.001Z,1012.50
2018-02-06T05:26:01.984Z,1012.46
2018-02-06T05:27:01.971Z,1012.46
2018-02-06T05:28:01.952Z,1012.42
2018-02-06T05:29:01.937Z,1012.44
2018-02-06T05:30:01.924Z,1012.40
2018-02-06T05:31:01.912Z,1012.41
2018-02-06T05:32:01.894Z,1012.36
2018-02-06T05:33:01.879Z,1012.35
2018-02-06T05:34:01.865Z,1012.32
2018-02-06T05:35:01.849Z,1012.35
2018-02-06T05:36:01.839Z,1012.33
2018-02-06T05:37:01.824Z,1012.26
2018-02-06T05:38:01.812Z,1012.25
2018-02-06T05:39:01.795Z,1012.27
2018-02-06T05:40:01.781Z,1012.32
2018-02-06T05:41:01.766Z,1012.33
2018-02-06T05:42:01.751Z,1012.28
2018-02-06T05:43:01.736Z,1012.32
2018-02-06T05:44:01.717Z,1012.25
2018-02-06T05:45:01.704Z,1012.27
2018-02-06T05:46:01.688Z,1012.24
2018-02-06T05:47:01.673Z,1012.25
2018-02-06T05:48:01.660Z,1012.23
2018-02-06T05:49:01.649Z,1012.27
2018-02-06T05:50:01.630Z,1012.24
2018-02-06T05:51:01.618Z,1012.23
2018-02-06T05:52:01.605Z,1012.21
2018-02-06T05:53:01.589Z,1012.22
2018-02-06T05:54:01.576Z,1012.20
2018-02-06T05:55:01.561Z,1012.14
2018-02-06T05:56:01.546Z,1012.17
2018-02-06T05:57:01.532Z,1012.15
2018-02-06T05:58:01.516Z,1012.14
2018-02-06T05:59:01.501Z,1012.08
2018-02-06T06:00:01.483Z,1012.12
2018-02-06T06:01:01.469Z,1012.13
2018-02-06T06:02:01.453Z,1012.12
2018-02-06T06:03:01.438Z,1012.07
2018-02-06T06:04:01.424Z,1012.10
2018-02-06T06:05:01.415Z,1012.02
2018-02-06T06:06:01.396Z,1012.10
2018-02-06T06:07:01.380Z,1011.94
2018-02-06T06:08:01.369Z,1012.03
2018-02-06T06:09:01.355Z,1012.00
2018-02-06T06:10:01.339Z,1012.05
2018-02-06T06:11:01.326Z,1011.97
2018-02-06T06:12:01.305Z,1011.99
2018-02-06T06:13:01.293Z,1011.99
2018-02-06T06:14:01.278Z,1012.04
2018-02-06T06:15:01.266Z,1012.04
2018-02-06T06:16:01.254Z,1011.99
2018-02-06T06:17:01.238Z,1012.00
2018-02-06T06:18:01.225Z,1011.94
2018-02-06T06:19:01.209Z,1012.03
2018-02-06T06:20:01.194Z,1011.93
2018-02-06T06:21:01.180Z,1011.97
2018-02-06T06:22:01.165Z,1011.91
2018-02-06T06:23:01.203Z,1011.84
2018-02-06T06:24:01.132Z,1011.86
2018-02-06T06:25:01.118Z,1011.87
2018-02-06T06:26:01.106Z,1011.84
2018-02-06T06:27:01.088Z,1011.84
2018-02-06T06:28:01.074Z,1011.76
2018-02-06T06:29:01.064Z,1011.76
2018-02-06T06:30:01.044Z,1011.79
2018-02-06T06:31:01.030Z,1011.77
2018-02-06T06:32:01.020Z,1011.77
2018-02-06T06:33:01.005Z,1011.73
2018-02-06T06:34:00.991Z,1011.72
2018-02-06T06:35:00.976Z,1011.72
2018-02-06T06:36:00.962Z,1011.69
2018-02-06T06:37:00.947Z,1011.68
2018-02-06T06:38:00.932Z,1011.68
2018-02-06T06:39:00.922Z,1011.69
2018-02-06T06:40:00.900Z,1011.67
2018-02-06T06:41:00.885Z,1011.63
2018-02-06T06:42:00.870Z,1011.66
2018-02-06T06:43:00.855Z,1011.63
2018-02-06T06:44:00.841Z,1011.63
2018-02-06T06:45:00.827Z,1011.65
2018-02-06T06:46:00.811Z,1011.64
2018-02-06T06:47:00.798Z,1011.61
2018-02-06T06:48:00.787Z,1011.66
2018-02-06T06:49:00.773Z,1011.68
2018-02-06T06:50:00.758Z,1011.68
2018-02-06T06:51:00.744Z,1011.63
2018-02-06T06:52:00.730Z,1011.66
2018-02-06T06:53:00.761Z,1011.69
2018-02-06T06:54:00.700Z,1011.67
2018-02-06T06:55:00.686Z,1011.69
2018-02-06T06:56:00.667Z,1011.67
2018-02-06T06:57:00.653Z,1011.67
2018-02-06T06:58:00.637Z,1011.70
2018-02-06T06:59:00.623Z,1011.67
2018-02-06T07:00:00.610Z,1011.65
2018-02-06T07:01:00.595Z,1011.65
2018-02-06T07:02:00.580Z,1011.69
2018-02-06T07:03:00.566Z,1011.69
2018-02-06T07:04:00.555Z,1011.68
2018-02-06T07:05:00.541Z,1011.69
2018-02-06T07:06:00.527Z,1011.73
2018-02-06T07:07:00.512Z,1011.68
2018-02-06T07:08:00.497Z,1011.67
2018-02-06T07:09:00.483Z,1011.60
2018-02-06T07:10:00.468Z,1011.65
2018-02-06T07:11:00.454Z,1011.63
2018-02-06T07:12:00.435Z,1011.59
2018-02-06T07:13:00.421Z,1011.56
2018-02-06T07:14:00.406Z,1011.59
2018-02-06T07:15:00.390Z,1011.62
2018-02-06T07:16:00.388Z,1011.60
2018-02-06T07:17:00.363Z,1011.60
2018-02-06T07:18:00.348Z,1011.62
2018-02-06T07:19:00.333Z,1011.59
2018-02-06T07:20:00.323Z,1011.61
2018-02-06T07:21:00.308Z,1011.61
2018-02-06T07:22:00.294Z,1011.65
2018-02-06T07:23:00.279Z,1011.63
2018-02-06T07:24:00.265Z,1011.65
2018-02-06T07:25:00.251Z,1011.69
2018-02-06T07:26:00.236Z,1011.69
2018-02-06T07:27:00.222Z,1011.68
2018-02-06T07:28:00.203Z,1011.71
2018-02-06T07:29:00.189Z,1011.72
2018-02-06T07:30:00.174Z,1011.67
2018-02-06T07:31:00.160Z,1011.70
2018-02-06T07:32:00.146Z,1011.63
2018-02-06T07:33:00.132Z,1011.73
2018-02-06T07:34:00.118Z,1011.73
2018-02-06T07:35:00.103Z,1011.67
2018-02-06T07:36:00.095Z,1011.67
2018-02-06T07:37:00.079Z,1011.68
2018-02-06T07:38:00.064Z,1011.69
2018-02-06T07:39:00.051Z,1011.73
2018-02-06T07:40:00.041Z,1011.76
2018-02-06T07:41:00.024Z,1011.81
2018-02-06T07:42:00.008Z,1011.78
2018-02-06T07:42:59.994Z,1011.82
2018-02-06T07:43:59.976Z,1011.83
2018-02-06T07:44:59.963Z,1011.76
2018-02-06T07:45:59.948Z,1011.78
2018-02-06T07:46:59.935Z,1011.77
2018-02-06T07:47:59.924Z,1011.78
2018-02-06T07:48:59.908Z,1011.78
2018-02-06T07:49:59.894Z,1011.78
2018-02-06T07:50:59.908Z,1011.73
2018-02-06T07:51:59.877Z,1011.78
2018-02-06T07:52:59.859Z,1011.69
2018-02-06T07:53:59.845Z,1011.70
2018-02-06T07:54:59.832Z,1011.65
2018-02-06T07:55:59.819Z,1011.65
2018-02-06T07:56:59.806Z,1011.59
2018-02-06T07:57:59.793Z,1011.61
2018-02-06T07:58:59.778Z,1011.62
2018-02-06T07:59:59.762Z,1011.59
2018-02-06T08:00:59.748Z,1011.56
2018-02-06T08:01:59.734Z,1011.64
2018-02-06T08:02:59.723Z,1011.55
2018-02-06T08:03:59.709Z,1011.58
2018-02-06T08:04:59.696Z,1011.53
2018-02-06T08:05:59.682Z,1011.54
2018-02-06T08:06:59.720Z,1011.53
2018-02-06T08:07:59.660Z,1011.48
2018-02-06T08:08:59.647Z,1011.52
2018-02-06T08:09:59.636Z,1011.57
2018-02-06T08:10:59.626Z,1011.55
2018-02-06T08:11:59.630Z,1011.52
2018-02-06T08:12:59.594Z,1011.56
2018-02-06T08:13:59.581Z,1011.53
2018-02-06T08:14:59.567Z,1011.56
2018-02-06T08:15:59.550Z,1011.59
2018-02-06T08:16:59.538Z,1011.62
2018-02-06T08:17:59.523Z,1011.69
2018-02-06T08:18:59.511Z,1011.69
2018-02-06T08:19:59.503Z,1011.69
2018-02-06T08:20:59.490Z,1011.68
2018-02-06T08:21:59.477Z,1011.66
2018-02-06T08:22:59.467Z,1011.75
2018-02-06T08:23:59.448Z,1011.78
2018-02-06T08:24:59.436Z,1011.70
2018-02-06T08:25:59.423Z,1011.71
2018-02-06T08:26:59.411Z,1011.68
2018-02-06T08:27:59.401Z,1011.72
2018-02-06T08:28:59.388Z,1011.55
2018-02-06T08:29:59.377Z,1011.44
2018-02-06T08:30:59.367Z,1011.42
2018-02-06T08:31:59.360Z,1011.40
2018-02-06T08:32:59.352Z,1011.43
2018-02-06T08:33:59.338Z,1011.48
2018-02-06T08:34:59.364Z,1011.42
2018-02-06T08:35:59.356Z,1011.45
2018-02-06T08:36:59.337Z,1011.38
2018-02-06T08:37:59.330Z,1011.38
2018-02-06T08:38:59.290Z,1011.44
2018-02-06T08:39:59.276Z,1011.41
2018-02-06T08:40:59.265Z,1011.39
2018-02-06T08:41:59.255Z,1011.42
2018-02-06T08:42:59.246Z,1011.39
2018-02-06T08:43:59.236Z,1011.45
2018-02-06T08:44:59.226Z,1011.41
2018-02-06T08:45:59.219Z,1011.46
2018-02-06T08:46:59.210Z,1011.41
2018-02-06T08:47:59.205Z,1011.46
2018-02-06T08:48:59.195Z,1011.47
2018-02-06T08:49:59.184Z,1011.50
2018-02-06T08:50:59.179Z,1011.46
2018-02-06T08:51:59.168Z,1011.43
2018-02-06T08:52:59.163Z,1011.37
2018-02-06T08:53:59.151Z,1011.39
2018-02-06T08:54:59.146Z,1011.37
2018-02-06T08:55:59.131Z,1011.37
2018-02-06T08:56:59.121Z,1011.38
2018-02-06T08:57:59.113Z,1011.35
2018-02-06T08:58:59.105Z,1011.34
2018-02-06T08:59:59.097Z,1011.36
2018-02-06T09:00:59.091Z,1011.39
2018-02-06T09:01:59.082Z,1011.43
2018-02-06T09:02:59.076Z,1011.40
2018-02-06T09:03:59.078Z,1011.39
2018-02-06T09:04:59.065Z,1011.36
2018-02-06T09:05:59.060Z,1011.32
2018-02-06T09:06:59.054Z,1011.29
2018-02-06T09:07:59.047Z,1011.33
2018-02-06T09:08:59.042Z,1011.30
2018-02-06T09:09:59.035Z,1011.28
2018-02-06T09:10:59.024Z,1011.33
2018-02-06T09:11:59.016Z,1011.19
2018-02-06T09:12:59.010Z,1011.27
2018-02-06T09:13:59.002Z,1011.25
2018-02-06T09:14:59.000Z,1011.21
2018-02-06T09:15:58.995Z,1011.24
2018-02-06T09:16:58.987Z,1011.20
2018-02-06T09:17:58.981Z,1011.19
2018-02-06T09:18:58.977Z,1011.22
2018-02-06T09:19:58.973Z,1011.24
2018-02-06T09:20:58.970Z,1011.14
2018-02-06T09:21:58.963Z,1011.17
2018-02-06T09:22:58.956Z,1011.22
2018-02-06T09:23:58.949Z,1011.33
2018-02-06T09:24:58.941Z,1011.24
2018-02-06T09:25:58.936Z,1011.25
2018-02-06T09:26:58.931Z,1011.34
2018-02-06T09:27:58.929Z,1011.27
2018-02-06T09:28:58.927Z,1011.31
2018-02-06T09:29:58.920Z,1011.41
2018-02-06T09:30:58.918Z,1011.33
2018-02-06T09:31:58.917Z,1011.35
2018-02-06T09:32:58.914Z,1011.36
2018-02-06T09:33:58.906Z,1011.40
2018-02-06T09:34:58.897Z,1011.39
2018-02-06T09:35:58.892Z,1011.40
2018-02-06T09:36:58.885Z,1011.45
2018-02-06T09:37:58.879Z,1011.42
2018-02-06T09:38:58.876Z,1011.38
2018-02-06T09:39:58.873Z,1011.46
2018-02-06T09:40:58.870Z,1011.39
2018-02-06T09:41:58.867Z,1011.39
2018-02-06T09:42:58.864Z,1011.37
2018-02-06T09:43:58.866Z,1011.32
2018-02-06T09:44:58.863Z,1011.27
2018-02-06T09:45:58.860Z,1011.31
2018-02-06T09:46:58.858Z,1011.35
2018-02-06T09:47:58.858Z,1011.33
2018-02-06T09:48:58.887Z,1011.39
2018-02-06T09:49:58.853Z,1011.37
2018-02-06T09:50:58.870Z,1011.36
2018-02-06T09:51:58.847Z,1011.28
2018-02-06T09:52:58.849Z,1011.21
2018-02-06T09:53:58.845Z,1011.12
2018-02-06T09:54:58.844Z,1011.12
2018-02-06T09:55:58.844Z,1011.16
2018-02-06T09:56:58.841Z,1011.17
2018-02-06T09:57:58.840Z,1011.09
2018-02-06T09:58:58.839Z,1011.06
2018-02-06T09:59:58.841Z,1010.98
2018-02-06T10:00:58.840Z,1010.99
2018-02-06T10:01:58.841Z,1010.99
2018-02-06T10:02:58.835Z,1010.95
2018-02-06T10:03:58.832Z,1011.03
2018-02-06T10:04:58.828Z,1010.94
2018-02-06T10:05:58.824Z,1010.94
2018-02-06T10:06:58.821Z,1011.00
2018-02-06T10:07:58.812Z,1010.94
2018-02-06T10:08:58.808Z,1010.92
2018-02-06T10:09:58.808Z,1010.89
2018-02-06T10:10:58.797Z,1010.84
2018-02-06T10:11:58.791Z,1010.85
2018-02-06T10:12:58.790Z,1010.83
2018-02-06T10:13:58.779Z,1010.81
2018-02-06T10:14:58.773Z,1010.72
2018-02-06T10:15:58.770Z,1010.75
2018-02-06T10:16:58.765Z,1010.71
2018-02-06T10:17:58.757Z,1010.74
2018-02-06T10:18:58.748Z,1010.71
2018-02-06T10:19:58.741Z,1010.74
2018-02-06T10:20:58.734Z,1010.73
2018-02-06T10:21:58.725Z,1010.71
2018-02-06T10:22:58.718Z,1010.71
2018-02-06T10:23:58.706Z,1010.77
2018-02-06T10:24:58.698Z,1010.73
2018-02-06T10:25:58.689Z,1010.71
2018-02-06T10:26:58.803Z,1010.69
2018-02-06T10:27:58.677Z,1010.65
2018-02-06T10:28:58.669Z,1010.62
2018-02-06T10:29:58.663Z,1010.65
2018-02-06T10:30:58.651Z,1010.55
2018-02-06T10:31:58.640Z,1010.59
2018-02-06T10:32:58.629Z,1010.60
2018-02-06T10:33:58.621Z,1010.60
2018-02-06T10:34:58.615Z,1010.50
2018-02-06T10:35:58.603Z,1010.46
2018-02-06T10:36:58.593Z,1010.50
2018-02-06T10:37:58.584Z,1010.54
2018-02-06T10:38:58.573Z,1010.54
2018-02-06T10:39:58.568Z,1010.49
2018-02-06T10:40:58.561Z,1010.48
2018-02-06T10:41:58.550Z,1010.46
2018-02-06T10:42:58.540Z,1010.41
2018-02-06T10:43:58.530Z,1010.41
2018-02-06T10:44:58.520Z,1010.45
2018-02-06T10:45:58.511Z,1010.49
2018-02-06T10:46:58.499Z,1010.51
2018-02-06T10:47:58.485Z,1010.51
2018-02-06T10:48:58.476Z,1010.46
2018-02-06T10:49:58.465Z,1010.53
2018-02-06T10:50:58.454Z,1010.53
2018-02-06T10:51:58.445Z,1010.51
2018-02-06T10:52:58.435Z,1010.46
2018-02-06T10:53:58.424Z,1010.46
2018-02-06T10:54:58.414Z,1010.42
2018-02-06T10:55:58.408Z,1010.42
2018-02-06T10:56:58.398Z,1010.43
2018-02-06T10:57:58.387Z,1010.44
2018-02-06T10:58:58.378Z,1010.46
2018-02-06T10:59:58.367Z,1010.42
2018-02-06T11:00:58.363Z,1010.36
2018-02-06T11:01:58.346Z,1010.31
2018-02-06T11:02:58.335Z,1010.33
2018-02-06T11:03:58.321Z,1010.24
2018-02-06T11:04:58.312Z,1010.29
2018-02-06T11:05:58.300Z,1010.27
2018-02-06T11:06:58.290Z,1010.26
2018-02-06T11:07:58.280Z,1010.25
2018-02-06T11:08:58.269Z,1010.22
2018-02-06T11:09:58.258Z,1010.22
2018-02-06T11:10:58.250Z,1010.23
2018-02-06T11:11:58.244Z,1010.21
2018-02-06T11:12:58.232Z,1010.13
2018-02-06T11:13:58.220Z,1010.15
2018-02-06T11:14:58.217Z,1010.20
2018-02-06T11:15:58.202Z,1010.12
2018-02-06T11:16:58.192Z,1010.17
2018-02-06T11:17:58.183Z,1010.09
2018-02-06T11:18:58.169Z,1010.11
2018-02-06T11:19:58.169Z,1010.11
2018-02-06T11:20:58.170Z,1010.10
2018-02-06T11:21:58.133Z,1010.05
2018-02-06T11:22:58.124Z,1010.01
2018-02-06T11:23:58.113Z,1009.99
2018-02-06T11:24:58.103Z,1009.96
2018-02-06T11:25:58.094Z,1009.94
2018-02-06T11:26:58.082Z,1009.93
2018-02-06T11:27:58.075Z,1009.93
2018-02-06T11:28:58.067Z,1009.87
2018-02-06T11:29:58.053Z,1009.88
2018-02-06T11:30:58.044Z,1009.84
2018-02-06T11:31:58.029Z,1009.87
2018-02-06T11:32:58.018Z,1009.83
2018-02-06T11:33:58.008Z,1009.85
2018-02-06T11:34:57.998Z,1009.91
2018-02-06T11:35:57.991Z,1009.85
2018-02-06T11:36:57.981Z,1009.81
2018-02-06T11:37:57.969Z,1009.87
2018-02-06T11:38:57.959Z,1009.82
2018-02-06T11:39:57.950Z,1009.79
2018-02-06T11:40:57.938Z,1009.81
2018-02-06T11:41:57.927Z,1009.85
2018-02-06T11:42:57.918Z,1009.87
2018-02-06T11:43:57.902Z,1009.77
2018-02-06T11:44:57.894Z,1009.82
2018-02-06T11:45:57.882Z,1009.80
2018-02-06T11:46:57.871Z,1009.87
2018-02-06T11:47:57.862Z,1009.79
2018-02-06T11:48:57.851Z,1009.84
2018-02-06T11:49:57.841Z,1009.78
2018-02-06T11:50:57.829Z,1009.81
2018-02-06T11:51:57.826Z,1009.79
2018-02-06T11:52:57.818Z,1009.82
2018-02-06T11:53:57.808Z,1009.81
2018-02-06T11:54:57.802Z,1009.80
2018-02-06T11:55:57.783Z,1009.78
2018-02-06T11:56:57.772Z,1009.81
2018-02-06T11:57:57.761Z,1009.73
2018-02-06T11:58:57.750Z,1009.69
2018-02-06T11:59:57.736Z,1009.68
2018-02-06T12:00:57.727Z,1009.66
2018-02-06T12:01:57.714Z,1009.66
2018-02-06T12:02:57.709Z,1009.68
2018-02-06T12:03:57.700Z,1009.63
2018-02-06T12:04:57.686Z,1009.61
2018-02-06T12:05:57.674Z,1009.58
2018-02-06T12:06:57.667Z,1009.57
2018-02-06T12:07:57.656Z,1009.52
2018-02-06T12:08:57.649Z,1009.51
2018-02-06T12:09:57.637Z,1009.50
2018-02-06T12:10:57.627Z,1009.43
2018-02-06T12:11:57.616Z,1009.45
2018-02-06T12:12:57.612Z,1009.43
2018-02-06T12:13:57.597Z,1009.46
2018-02-06T12:14:57.586Z,1009.48
2018-02-06T12:15:57.573Z,1009.44
2018-02-06T12:16:57.564Z,1009.47
2018-02-06T12:17:57.551Z,1009.47
2018-02-06T12:18:57.538Z,1009.50
2018-02-06T12:19:57.529Z,1009.53
2018-02-06T12:20:57.523Z,1009.45
2018-02-06T12:21:57.506Z,1009.45
2018-02-06T12:22:57.500Z,1009.47
2018-02-06T12:23:57.492Z,1009.40
2018-02-06T12:24:57.482Z,1009.43
2018-02-06T12:25:57.470Z,1009.43
2018-02-06T12:26:57.460Z,1009.45
2018-02-06T12:27:57.451Z,1009.43
2018-02-06T12:28:57.443Z,1009.37
2018-02-06T12:29:57.431Z,1009.43
2018-02-06T12:30:57.418Z,1009.38
2018-02-06T12:31:57.407Z,1009.35
2018-02-06T12:32:57.395Z,1009.38
2018-02-06T12:33:57.383Z,1009.28
2018-02-06T12:34:57.372Z,1009.29
2018-02-06T12:35:57.368Z,1009.27
2018-02-06T12:36:57.358Z,1009.23
2018-02-06T12:37:57.348Z,1009.26
2018-02-06T12:38:57.338Z,1009.27
2018-02-06T12:39:57.321Z,1009.25
2018-02-06T12:40:57.312Z,1009.24
2018-02-06T12:41:57.301Z,1009.23
2018-02-06T12:42:57.292Z,1009.23
2018-02-06T12:43:57.282Z,1009.25
2018-02-06T12:44:57.271Z,1009.21
2018-02-06T12:45:57.261Z,1009.16
2018-02-06T12:46:57.249Z,1009.14
2018-02-06T12:47:57.248Z,1009.10
2018-02-06T12:48:57.233Z,1009.11
2018-02-06T12:49:57.222Z,1009.05
2018-02-06T12:50:57.215Z,1009.02
2018-02-06T12:51:57.202Z,1008.99
2018-02-06T12:52:57.192Z,1008.93
2018-02-06T12:53:57.182Z,1008.90
2018-02-06T12:54:57.170Z,1008.90
2018-02-06T12:55:57.155Z,1008.88
2018-02-06T12:56:57.149Z,1008.92
2018-02-06T12:57:57.136Z,1008.94
2018-02-06T12:58:57.124Z,1008.91
2018-02-06T12:59:57.115Z,1008.89
2018-02-06T13:00:57.103Z,1008.92
2018-02-06T13:01:57.092Z,1008.91
2018-02-06T13:02:57.084Z,1008.91
2018-02-06T13:03:57.083Z,1008.87
2018-02-06T13:04:57.068Z,1008.89
2018-02-06T13:05:57.056Z,1008.93
2018-02-06T13:06:57.044Z,1008.94
2018-02-06T13:07:57.036Z,1008.97
2018-02-06T13:08:57.042Z,1008.96
2018-02-06T13:09:57.014Z,1009.06
2018-02-06T13:10:57.004Z,1009.10
2018-02-06T13:11:56.989Z,1009.06
2018-02-06T13:12:56.979Z,1009.07
2018-02-06T13:13:56.967Z,1009.08
2018-02-06T13:14:56.956Z,1009.07
2018-02-06T13:15:56.946Z,1009.08
2018-02-06T13:16:56.942Z,1009.12
2018-02-06T13:17:56.927Z,1009.15
2018-02-06T13:18:56.915Z,1009.10
2018-02-06T13:19:56.908Z,1009.09
2018-02-06T13:20:56.900Z,1009.14
2018-02-06T13:21:56.890Z,1009.10
2018-02-06T13:22:56.876Z,1009.10
2018-02-06T13:23:56.870Z,1009.08
2018-02-06T13:24:56.860Z,1009.03
2018-02-06T13:25:56.845Z,1008.95
2018-02-06T13:26:56.839Z,1008.92
2018-02-06T13:27:56.824Z,1008.90
2018-02-06T13:28:56.812Z,1008.87
2018-02-06T13:29:56.802Z,1008.86
2018-02-06T13:30:56.792Z,1008.84
2018-02-06T13:31:56.779Z,1008.76
2018-02-06T13:32:56.768Z,1008.81
2018-02-06T13:33:56.758Z,1008.80
2018-02-06T13:34:56.747Z,1008.81
2018-02-06T13:35:56.745Z,1008.83
2018-02-06T13:36:56.733Z,1008.84
2018-02-06T13:37:56.720Z,1008.76
2018-02-06T13:38:56.709Z,1008.83
2018-02-06T13:39:56.694Z,1008.81
2018-02-06T13:40:56.683Z,1008.86
2018-02-06T13:41:56.671Z,1008.80
2018-02-06T13:42:56.661Z,1008.80
2018-02-06T13:43:56.663Z,1008.75
2018-02-06T13:44:56.646Z,1008.76
2018-02-06T13:45:56.636Z,1008.77
2018-02-06T13:46:56.626Z,1008.82
2018-02-06T13:47:56.613Z,1008.81
2018-02-06T13:48:56.606Z,1008.78
2018-02-06T13:49:56.595Z,1008.71
2018-02-06T13:50:56.578Z,1008.73
2018-02-06T13:51:56.567Z,1008.68
2018-02-06T13:52:56.557Z,1008.71
2018-02-06T13:53:56.547Z,1008.67
2018-02-06T13:54:56.536Z,1008.67
2018-02-06T13:55:56.522Z,1008.64
2018-02-06T13:56:56.511Z,1008.67
2018-02-06T13:57:56.500Z,1008.68
2018-02-06T13:58:56.488Z,1008.61
2018-02-06T13:59:56.483Z,1008.65
2018-02-06T14:00:56.473Z,1008.67
2018-02-06T14:01:56.462Z,1008.69